Time;durP1;ratioP1;P1;durP2;ratioP2;P2;SDS_P1;SDS_P2;PMS_P1;PMS_P2;Temp;Humidity;BMP_temperature;BMP_pressure;BME280_temperature;BME280_humidity;BME280_pressure;Samples;Min_cycle;Max_cycle;Signal;HPM_P1;HPM_P2
2022/11/02 00:00:39;;;;;;;14.73;3.38;;;12.60;89.30;;;;;;5116018;28;20036;-82
2022/11/02 00:03:05;;;;;;;6.22;2.13;;;12.60;89.90;;;;;;5113771;28;20044;-81
2022/11/02 00:05:32;;;;;;;6.60;1.75;;;12.60;89.80;;;;;;5097054;28;20032;-81
2022/11/02 00:07:58;;;;;;;8.07;2.10;;;12.60;90.00;;;;;;5096339;28;20035;-80
2022/11/02 00:10:24;;;;;;;9.32;2.38;;;12.60;90.30;;;;;;5097361;28;20036;-82
2022/11/02 00:12:50;;;;;;;9.10;2.72;;;12.60;90.40;;;;;;5096402;28;20043;-80
2022/11/02 00:15:16;;;;;;;8.98;2.10;;;12.60;90.70;;;;;;5112980;28;20146;-83
2022/11/02 00:17:46;;;;;;;5.72;1.77;;;12.50;91.20;;;;;;5095932;28;20044;-79
2022/11/02 00:20:14;;;;;;;7.55;2.60;;;12.50;91.50;;;;;;5095708;28;20044;-83
2022/11/02 00:22:41;;;;;;;9.73;2.35;;;12.40;91.40;;;;;;5112438;28;20060;-79
2022/11/02 00:25:11;;;;;;;4.60;1.80;;;12.30;92.40;;;;;;5095987;28;20051;-80
2022/11/02 00:27:38;;;;;;;6.47;2.05;;;12.30;92.10;;;;;;5095735;28;20036;-82
2022/11/02 00:30:04;;;;;;;7.30;1.70;;;12.30;93.00;;;;;;5079139;28;20036;-82
2022/11/02 00:32:30;;;;;;;7.13;2.60;;;12.20;93.20;;;;;;5096392;28;20138;-80
2022/11/02 00:34:56;;;;;;;5.55;2.13;;;12.10;93.40;;;;;;5062552;28;20493;-80
2022/11/02 00:37:21;;;;;;;6.80;1.92;;;12.10;93.60;;;;;;5095708;28;20070;-80
2022/11/02 00:39:47;;;;;;;8.07;1.85;;;12.00;93.30;;;;;;5095671;28;20036;-81
2022/11/02 00:42:13;;;;;;;5.70;1.88;;;12.00;92.80;;;;;;5078438;28;20408;-83
2022/11/02 00:44:39;;;;;;;6.95;2.17;;;12.00;93.20;;;;;;5095678;28;20043;-80
2022/11/02 00:47:04;;;;;;;6.07;2.28;;;11.90;93.00;;;;;;5078541;28;20116;-81
2022/11/02 00:49:30;;;;;;;7.30;1.70;;;11.90;93.10;;;;;;5095981;28;20058;-81
2022/11/02 00:51:56;;;;;;;10.02;2.40;;;11.80;93.10;;;;;;5079228;28;20050;-81
2022/11/02 00:54:22;;;;;;;7.85;1.98;;;11.80;93.00;;;;;;5113565;28;20053;-80
2022/11/02 00:56:48;;;;;;;6.18;2.10;;;11.70;92.80;;;;;;5112930;28;20052;-78
2022/11/02 00:59:14;;;;;;;6.38;1.67;;;11.70;92.40;;;;;;5078870;28;20055;-80
2022/11/02 01:01:45;;;;;;;8.82;1.63;;;11.70;92.40;;;;;;5112873;28;20039;-80
2022/11/02 01:04:15;;;;;;;7.07;1.40;;;11.70;92.10;;;;;;5080330;28;20035;-80
2022/11/02 01:06:41;;;;;;;5.63;1.70;;;11.80;91.90;;;;;;5112265;28;20396;-82
2022/11/02 01:09:08;;;;;;;8.05;2.17;;;11.80;91.80;;;;;;5078673;28;20039;-82
2022/11/02 01:11:34;;;;;;;5.00;1.77;;;11.80;91.70;;;;;;5113379;28;20409;-81
2022/11/02 01:14:00;;;;;;;4.70;1.77;;;11.80;91.80;;;;;;5112746;28;20114;-80
2022/11/02 01:16:26;;;;;;;6.72;1.60;;;11.80;91.70;;;;;;5095941;28;20518;-80
2022/11/02 01:18:53;;;;;;;5.28;1.50;;;11.80;91.40;;;;;;5079128;28;20069;-81
2022/11/02 01:21:20;;;;;;;5.47;1.60;;;11.90;91.30;;;;;;5112675;28;20038;-77
2022/11/02 01:23:46;;;;;;;3.25;1.13;;;12.00;90.30;;;;;;5112418;28;20036;-80
2022/11/02 01:26:12;;;;;;;6.45;1.63;;;12.10;90.00;;;;;;5112460;28;20035;-80
2022/11/02 01:28:38;;;;;;;10.13;1.90;;;12.00;89.80;;;;;;5112609;28;20035;-83
2022/11/02 01:31:05;;;;;;;5.60;1.50;;;12.00;89.80;;;;;;5094813;28;20039;-81
2022/11/02 01:33:32;;;;;;;6.45;1.85;;;12.00;90.10;;;;;;5111748;28;20480;-80
2022/11/02 01:35:58;;;;;;;11.25;2.25;;;12.00;90.40;;;;;;5094532;28;20055;-77
2022/11/02 01:38:24;;;;;;;8.90;1.92;;;11.80;90.30;;;;;;5078005;28;20040;-78
2022/11/02 01:40:50;;;;;;;8.35;1.88;;;11.80;90.70;;;;;;5111851;28;20456;-78
2022/11/02 01:43:27;;;;;;;10.10;2.10;;;11.70;90.70;;;;;;5094676;28;20078;-78
2022/11/02 01:46:24;;;;;;;7.90;1.55;;;11.50;90.70;;;;;;5094776;28;20044;-81
2022/11/02 01:49:08;;;;;;;5.18;1.30;;;11.50;90.80;;;;;;5090421;28;20130;-79
2022/11/02 01:51:50;;;;;;;5.38;1.27;;;11.30;90.90;;;;;;5095278;28;20048;-79
2022/11/02 01:54:20;;;;;;;5.68;1.00;;;11.20;91.10;;;;;;5094915;28;20077;-80
2022/11/02 01:56:50;;;;;;;4.82;1.13;;;11.10;90.90;;;;;;5095132;28;20405;-79
2022/11/02 01:59:25;;;;;;;6.32;1.00;;;11.10;91.10;;;;;;5098328;28;20039;-81
2022/11/02 02:01:53;;;;;;;2.42;0.80;;;11.00;91.10;;;;;;5098310;28;20093;-81
2022/11/02 02:04:19;;;;;;;4.65;1.58;;;11.00;90.90;;;;;;5115828;28;20034;-82
2022/11/02 02:06:45;;;;;;;3.67;0.82;;;11.00;91.00;;;;;;5098414;28;20036;-81
2022/11/02 02:09:13;;;;;;;7.82;1.52;;;11.00;91.00;;;;;;5081772;28;20079;-79
2022/11/02 02:11:39;;;;;;;5.85;1.20;;;10.90;91.00;;;;;;5065673;28;20039;-79
2022/11/02 02:14:10;;;;;;;4.38;1.50;;;11.00;91.00;;;;;;5099322;28;20027;-77
2022/11/02 02:16:55;;;;;;;5.30;1.33;;;11.00;91.00;;;;;;5116131;28;20119;-78
2022/11/02 02:19:57;;;;;;;4.78;1.02;;;11.00;91.80;;;;;;5098911;28;20096;-81
2022/11/02 02:22:50;;;;;;;4.30;1.40;;;11.00;92.20;;;;;;5098979;28;20500;-79
2022/11/02 02:25:46;;;;;;;5.07;1.45;;;11.00;92.50;;;;;;5116415;28;20035;-81
2022/11/02 02:28:41;;;;;;;6.40;1.80;;;11.00;92.90;;;;;;5116212;28;20031;-78
2022/11/02 02:31:11;;;;;;;9.13;2.33;;;11.00;92.90;;;;;;5099249;28;20136;-78
2022/11/02 02:33:58;;;;;;;5.95;1.73;;;11.00;92.70;;;;;;5115615;28;20047;-81
2022/11/02 02:36:29;;;;;;;2.90;1.60;;;11.10;92.90;;;;;;5097793;28;20067;-79
2022/11/02 02:39:00;;;;;;;6.25;1.10;;;11.10;92.60;;;;;;5098586;28;20134;-80
2022/11/02 02:41:54;;;;;;;3.33;1.13;;;11.20;91.90;;;;;;5115448;28;20039;-81
2022/11/02 02:44:22;;;;;;;4.20;0.90;;;11.10;91.60;;;;;;5098473;28;20252;-78
2022/11/02 02:46:57;;;;;;;4.50;0.90;;;11.20;90.50;;;;;;5098710;28;20102;-80
2022/11/02 02:49:47;;;;;;;5.03;0.75;;;11.20;89.30;;;;;;5097807;28;20080;-79
2022/11/02 02:52:15;;;;;;;4.03;1.15;;;11.10;88.80;;;;;;5114862;28;20096;-81
2022/11/02 02:54:45;;;;;;;3.47;1.00;;;11.20;88.90;;;;;;5097932;28;20039;-82
2022/11/02 02:57:16;;;;;;;7.03;2.20;;;11.20;89.10;;;;;;5098386;28;20044;-80
2022/11/02 02:59:43;;;;;;;5.28;0.70;;;11.20;88.50;;;;;;5114798;28;20046;-80
2022/11/02 03:02:24;;;;;;;6.57;1.70;;;11.30;88.80;;;;;;5097139;28;20050;-79
2022/11/02 03:04:50;;;;;;;7.38;1.40;;;11.30;88.60;;;;;;5097516;28;20036;-78
2022/11/02 03:07:30;;;;;;;7.07;1.20;;;11.30;88.60;;;;;;5080390;28;20036;-80
2022/11/02 03:10:17;;;;;;;5.25;1.52;;;11.10;88.90;;;;;;5096959;28;20043;-80
2022/11/02 03:13:01;;;;;;;8.30;1.30;;;11.20;88.90;;;;;;5098044;28;20039;-82
2022/11/02 03:15:36;;;;;;;5.43;1.77;;;11.10;89.10;;;;;;5114734;28;20039;-80
2022/11/02 03:18:27;;;;;;;3.58;1.00;;;11.20;89.10;;;;;;5115066;28;20047;-82
2022/11/02 03:21:26;;;;;;;3.75;1.10;;;11.10;89.20;;;;;;5114997;28;20070;-78
2022/11/02 03:24:04;;;;;;;6.05;1.23;;;11.10;89.40;;;;;;5113738;28;20097;-83
2022/11/02 03:26:46;;;;;;;8.45;1.10;;;11.10;89.60;;;;;;5113724;28;20040;-79
2022/11/02 03:29:24;;;;;;;5.63;1.30;;;11.10;89.50;;;;;;5098956;28;20042;-79
2022/11/02 03:32:06;;;;;;;8.68;1.70;;;11.10;89.60;;;;;;5097703;28;20032;-79
2022/11/02 03:34:45;;;;;;;9.10;1.35;;;11.10;89.70;;;;;;5113797;28;20035;-79
2022/11/02 03:37:18;;;;;;;6.18;1.30;;;11.10;89.80;;;;;;5096669;28;20450;-82
2022/11/02 03:39:56;;;;;;;6.57;1.80;;;11.00;90.10;;;;;;5096834;28;20092;-78
2022/11/02 03:42:26;;;;;;;7.20;1.40;;;11.10;90.20;;;;;;5113446;28;20039;-80
2022/11/02 03:44:57;;;;;;;10.48;1.80;;;11.10;90.30;;;;;;5096455;28;20122;-80
2022/11/02 03:47:25;;;;;;;10.05;2.10;;;11.20;90.40;;;;;;5097239;28;20046;-80
2022/11/02 03:49:53;;;;;;;9.20;1.58;;;11.20;90.40;;;;;;5079550;28;20480;-82
2022/11/02 03:52:24;;;;;;;7.40;1.67;;;11.20;90.20;;;;;;5113334;28;20078;-84
2022/11/02 03:55:19;;;;;;;11.52;2.47;;;11.20;90.40;;;;;;5096681;28;20104;-80
2022/11/02 03:57:45;;;;;;;10.85;1.88;;;11.30;90.50;;;;;;5113510;28;20035;-82
2022/11/02 04:00:20;;;;;;;8.50;2.05;;;11.30;90.20;;;;;;5113483;28;20043;-80
2022/11/02 04:02:52;;;;;;;12.98;2.38;;;11.30;90.40;;;;;;5113401;28;20046;-82
2022/11/02 04:05:19;;;;;;;10.07;1.65;;;11.20;90.60;;;;;;5096249;28;20044;-83
2022/11/02 04:10:33;;;;;;;7.88;1.35;;;11.40;90.60;;;;;;5112704;28;20126;-82
2022/11/02 04:15:43;;;;;;;7.55;2.30;;;11.30;91.70;;;;;;5112876;28;20112;-78
2022/11/02 04:20:52;;;;;;;6.57;1.92;;;11.20;92.10;;;;;;5112007;28;20431;-80
2022/11/02 04:26:03;;;;;;;;;;;11.10;92.70;;;;;;5098442;28;20039;-80
2022/11/02 04:28:29;;;;;;;10.50;2.28;;;11.10;93.20;;;;;;5095289;28;19967;-80
2022/11/02 04:30:58;;;;;;;8.68;2.40;;;11.10;92.70;;;;;;5078594;28;20071;-80
2022/11/02 04:33:33;;;;;;;10.35;2.22;;;11.10;92.70;;;;;;5112446;28;20051;-78
2022/11/02 04:36:04;;;;;;;11.63;1.50;;;11.10;92.80;;;;;;5112035;28;20064;-81
2022/11/02 04:38:40;;;;;;;7.43;1.73;;;11.00;93.10;;;;;;5112539;28;20044;-79
2022/11/02 04:43:54;;;;;;;10.98;2.22;;;11.00;93.10;;;;;;5112158;28;20559;-80
2022/11/02 04:46:21;;;;;;;8.52;2.67;;;11.00;93.20;;;;;;5078926;28;20104;-81
2022/11/02 04:48:46;;;;;;;8.00;1.70;;;11.00;93.50;;;;;;5112210;28;20043;-78
2022/11/02 04:51:12;;;;;;;7.28;2.53;;;11.00;93.50;;;;;;5078318;28;20073;-79
2022/11/02 04:53:38;;;;;;;6.60;1.70;;;11.10;93.70;;;;;;5061837;28;20126;-80
2022/11/02 04:56:04;;;;;;;10.07;2.05;;;11.00;93.70;;;;;;5112056;28;20561;-80
2022/11/02 04:58:30;;;;;;;9.20;1.83;;;11.00;93.90;;;;;;5078578;28;20484;-82
2022/11/02 05:00:55;;;;;;;7.50;1.60;;;11.00;93.80;;;;;;5095414;28;20039;-77
2022/11/02 05:03:21;;;;;;;9.27;2.40;;;11.00;93.50;;;;;;5095156;28;20047;-84
2022/11/02 05:05:47;;;;;;;10.63;1.90;;;11.00;93.30;;;;;;5112371;28;20039;-81
2022/11/02 05:08:12;;;;;;;8.35;1.52;;;11.00;92.80;;;;;;5095387;28;20047;-81
2022/11/02 05:10:38;;;;;;;13.80;2.53;;;11.00;92.90;;;;;;5078254;28;20485;-82
2022/11/02 05:13:04;;;;;;;7.13;1.27;;;11.10;92.30;;;;;;5078287;28;20239;-82
2022/11/02 05:15:29;;;;;;;6.38;1.40;;;11.10;92.50;;;;;;5078417;28;20039;-82
2022/11/02 05:17:55;;;;;;;12.52;2.10;;;11.00;92.50;;;;;;5111982;28;20036;-81
2022/11/02 05:20:21;;;;;;;8.52;1.70;;;11.00;92.60;;;;;;5078454;28;20077;-82
2022/11/02 05:22:47;;;;;;;11.45;1.40;;;11.00;92.80;;;;;;5078033;28;20404;-81
2022/11/02 05:25:12;;;;;;;7.88;2.38;;;11.00;92.60;;;;;;5078242;28;20035;-78
2022/11/02 05:27:38;;;;;;;9.55;2.75;;;11.00;92.40;;;;;;5078319;28;20400;-81
2022/11/02 05:30:05;;;;;;;7.40;2.05;;;11.00;92.70;;;;;;5111828;28;20142;-80
2022/11/02 05:32:31;;;;;;;8.23;2.05;;;10.90;92.90;;;;;;5114463;28;20045;-82
2022/11/02 05:34:57;;;;;;;11.10;2.40;;;10.90;93.10;;;;;;5081978;28;20126;-80
2022/11/02 05:37:22;;;;;;;7.65;2.58;;;11.00;92.90;;;;;;5098625;28;20056;-82
2022/11/02 05:39:48;;;;;;;8.27;1.67;;;11.00;92.70;;;;;;5082169;28;20101;-82
2022/11/02 05:42:14;;;;;;;11.57;2.22;;;11.00;92.60;;;;;;5098863;28;20131;-81
2022/11/02 05:44:39;;;;;;;9.65;2.70;;;11.00;92.70;;;;;;5098877;28;20491;-81
2022/11/02 05:47:05;;;;;;;10.13;2.00;;;11.00;92.60;;;;;;5098879;28;20039;-81
2022/11/02 05:49:31;;;;;;;10.20;2.72;;;11.10;92.40;;;;;;5115653;28;20415;-82
2022/11/02 05:51:56;;;;;;;13.27;2.83;;;11.10;92.20;;;;;;5081308;28;20489;-83
2022/11/02 05:54:23;;;;;;;15.40;2.85;;;11.10;92.60;;;;;;5098362;28;20071;-81
2022/11/02 05:56:48;;;;;;;14.15;2.40;;;11.00;92.80;;;;;;5081684;28;20039;-80
2022/11/02 05:59:14;;;;;;;12.70;2.35;;;11.00;92.90;;;;;;5115228;28;20396;-82
2022/11/02 06:01:40;;;;;;;12.35;2.45;;;11.00;92.80;;;;;;5097986;28;20031;-79
2022/11/02 06:04:06;;;;;;;10.15;2.35;;;11.20;92.60;;;;;;5115358;28;20043;-82
2022/11/02 06:06:31;;;;;;;9.55;2.65;;;11.20;92.30;;;;;;5115202;28;20032;-79
2022/11/02 06:08:57;;;;;;;7.65;1.70;;;11.30;92.10;;;;;;5098311;28;20047;-80
2022/11/02 06:11:23;;;;;;;11.95;2.60;;;11.30;92.00;;;;;;5081029;28;20496;-81
2022/11/02 06:13:49;;;;;;;5.57;1.55;;;11.20;92.00;;;;;;5114873;28;20036;-81
2022/11/02 06:16:16;;;;;;;10.18;2.40;;;11.20;92.00;;;;;;5115225;28;20398;-81
2022/11/02 06:18:42;;;;;;;13.00;2.47;;;11.30;91.60;;;;;;5097822;28;20484;-81
2022/11/02 06:21:09;;;;;;;11.70;2.47;;;11.20;91.80;;;;;;5097812;28;20455;-81
2022/11/02 06:23:35;;;;;;;9.95;2.38;;;11.20;91.90;;;;;;5080832;28;20040;-79
2022/11/02 06:26:02;;;;;;;10.30;2.08;;;11.30;91.50;;;;;;5081211;28;20389;-78
2022/11/02 06:28:29;;;;;;;9.15;1.95;;;11.20;90.80;;;;;;5097496;28;20031;-82
2022/11/02 06:30:55;;;;;;;9.65;2.38;;;11.10;90.80;;;;;;5097699;28;20047;-79
2022/11/02 06:33:21;;;;;;;7.50;1.92;;;11.20;90.20;;;;;;5114312;28;20047;-80
2022/11/02 06:35:50;;;;;;;8.88;2.95;;;11.30;90.00;;;;;;5097260;28;20039;-79
2022/11/02 06:38:16;;;;;;;7.60;3.05;;;11.30;89.50;;;;;;5114007;28;20048;-78
2022/11/02 06:40:43;;;;;;;6.70;1.92;;;11.30;89.50;;;;;;5079841;28;20507;-77
2022/11/02 06:43:09;;;;;;;6.90;1.42;;;11.40;88.90;;;;;;5113598;28;20043;-81
2022/11/02 06:45:34;;;;;;;7.32;1.98;;;11.30;88.60;;;;;;5097377;28;20046;-80
2022/11/02 06:48:01;;;;;;;3.97;1.02;;;11.30;86.90;;;;;;5080685;28;20126;-80
2022/11/02 06:50:29;;;;;;;4.47;1.02;;;11.20;86.20;;;;;;5080647;28;20042;-79
2022/11/02 06:52:55;;;;;;;7.00;1.27;;;11.20;86.10;;;;;;5080817;28;20088;-81
2022/11/02 06:55:20;;;;;;;5.28;1.50;;;11.10;86.30;;;;;;5114388;28;20043;-80
2022/11/02 06:57:46;;;;;;;7.85;2.03;;;11.10;86.50;;;;;;5080694;28;20075;-80
2022/11/02 07:00:17;;;;;;;9.23;1.63;;;11.00;86.80;;;;;;5080840;28;20044;-79
2022/11/02 07:02:44;;;;;;;8.82;2.78;;;11.10;87.10;;;;;;5114478;28;20493;-80
2022/11/02 07:05:10;;;;;;;6.45;2.28;;;11.00;87.50;;;;;;5080712;28;20482;-81
2022/11/02 07:07:38;;;;;;;6.25;2.10;;;11.00;88.00;;;;;;5097782;28;20412;-80
2022/11/02 07:12:52;;;;;;;4.28;1.35;;;11.00;87.90;;;;;;5094490;28;20052;-79
2022/11/02 07:15:19;;;;;;;5.82;1.40;;;11.00;87.60;;;;;;5086840;28;20404;-82
2022/11/02 07:17:44;;;;;;;4.22;1.10;;;11.00;87.20;;;;;;5087319;28;20530;-82
2022/11/02 07:20:10;;;;;;;4.63;0.88;;;11.00;86.60;;;;;;5084966;28;20039;-81
2022/11/02 07:22:36;;;;;;;10.15;1.40;;;11.00;86.00;;;;;;5094901;28;20098;-80
2022/11/02 07:25:02;;;;;;;8.45;1.55;;;11.00;85.70;;;;;;5096541;28;20032;-83
2022/11/02 07:27:28;;;;;;;5.72;1.30;;;11.00;86.00;;;;;;5095834;28;20118;-83
2022/11/02 07:29:57;;;;;;;9.57;1.95;;;10.90;86.60;;;;;;5074357;28;20115;-82
2022/11/02 07:32:23;;;;;;;6.43;1.88;;;10.90;86.70;;;;;;5093420;28;20047;-79
2022/11/02 07:34:48;;;;;;;5.30;1.15;;;11.00;86.80;;;;;;5076404;28;20040;-81
2022/11/02 07:37:14;;;;;;;8.27;1.95;;;11.00;86.60;;;;;;5092733;28;20073;-82
2022/11/02 07:39:39;;;;;;;8.55;1.50;;;11.00;86.50;;;;;;5059354;28;20131;-82
2022/11/02 07:42:06;;;;;;;9.10;2.40;;;11.10;86.50;;;;;;5092557;28;20169;-82
2022/11/02 07:44:32;;;;;;;7.75;2.00;;;11.20;86.80;;;;;;5076273;28;20040;-81
2022/11/02 07:46:58;;;;;;;9.90;1.95;;;11.20;87.20;;;;;;5094579;28;20028;-82
2022/11/02 07:49:24;;;;;;;10.80;1.50;;;11.40;87.60;;;;;;5060685;28;20044;-82
2022/11/02 07:51:49;;;;;;;15.63;3.50;;;11.40;87.40;;;;;;5076662;28;20037;-83
2022/11/02 07:54:15;;;;;;;6.32;1.45;;;11.50;87.20;;;;;;5061434;28;20037;-81
2022/11/02 07:56:43;;;;;;;5.35;1.45;;;11.50;86.00;;;;;;5079074;28;20097;-83
2022/11/02 07:59:10;;;;;;;8.68;2.17;;;11.60;85.40;;;;;;5095648;28;20044;-80
2022/11/02 08:01:35;;;;;;;6.35;1.70;;;11.60;85.40;;;;;;5079155;28;20081;-84
2022/11/02 08:04:01;;;;;;;8.95;2.13;;;11.60;85.20;;;;;;5079291;28;20443;-84
2022/11/02 08:06:26;;;;;;;9.52;1.80;;;11.60;85.20;;;;;;5075024;28;20039;-82
2022/11/02 08:09:01;;;;;;;7.43;1.50;;;11.60;85.20;;;;;;5078494;28;20046;-81
2022/11/02 08:11:27;;;;;;;16.20;2.13;;;11.70;84.90;;;;;;5090116;28;20035;-82
2022/11/02 08:13:52;;;;;;;4.63;1.50;;;11.70;84.70;;;;;;5078905;28;20054;-82
2022/11/02 08:16:18;;;;;;;8.00;2.95;;;11.60;85.00;;;;;;5078080;28;20040;-81
2022/11/02 08:18:44;;;;;;;6.28;1.95;;;11.60;84.90;;;;;;5061415;28;20050;-81
2022/11/02 08:21:10;;;;;;;9.57;1.98;;;11.70;84.50;;;;;;5076450;28;20078;-83
2022/11/02 08:23:35;;;;;;;5.68;2.25;;;11.70;84.30;;;;;;5073147;28;20048;-79
2022/11/02 08:26:01;;;;;;;9.75;1.55;;;11.70;84.20;;;;;;5079325;28;20142;-80
2022/11/02 08:28:30;;;;;;;10.88;2.30;;;11.70;84.00;;;;;;5095677;28;20437;-83
2022/11/02 08:30:58;;;;;;;11.65;2.45;;;11.70;84.00;;;;;;5095010;28;20047;-83
2022/11/02 08:33:24;;;;;;;7.40;1.50;;;11.80;84.00;;;;;;5096824;28;20047;-83
2022/11/02 08:35:52;;;;;;;6.50;2.28;;;11.80;83.80;;;;;;5114269;28;20120;-83
2022/11/02 08:38:21;;;;;;;7.20;2.15;;;11.80;84.10;;;;;;5065337;28;20058;-81
2022/11/02 08:40:47;;;;;;;14.10;1.95;;;11.80;84.30;;;;;;5105416;28;20039;-81
2022/11/02 08:43:14;;;;;;;12.45;2.25;;;11.90;84.40;;;;;;5098571;28;20502;-80
2022/11/02 08:45:43;;;;;;;10.18;2.25;;;12.00;84.40;;;;;;5108576;28;20027;-82
2022/11/02 08:48:08;;;;;;;13.57;2.35;;;12.00;84.60;;;;;;5092308;28;20456;-84
2022/11/02 08:50:35;;;;;;;6.45;2.00;;;12.00;84.90;;;;;;5077198;28;20071;-85
2022/11/02 08:53:01;;;;;;;7.55;2.00;;;12.10;84.30;;;;;;5095105;28;20038;-84
2022/11/02 08:55:26;;;;;;;7.55;2.03;;;12.30;83.50;;;;;;5078257;28;20130;-86
2022/11/02 08:57:54;;;;;;;10.05;2.28;;;12.40;82.90;;;;;;5078210;28;20040;-79
2022/11/02 09:00:23;;;;;;;4.38;1.45;;;12.40;82.20;;;;;;5095173;28;20050;-81
2022/11/02 09:03:08;;;;;;;7.57;1.98;;;12.50;82.20;;;;;;5094420;28;20040;-80
2022/11/02 09:05:39;;;;;;;7.65;1.52;;;12.50;80.90;;;;;;5112515;28;20120;-83
2022/11/02 09:08:07;;;;;;;6.63;2.08;;;12.60;80.70;;;;;;5115358;28;20082;-83
2022/11/02 09:10:35;;;;;;;7.90;1.75;;;12.60;80.60;;;;;;5099258;28;20067;-81
2022/11/02 09:13:03;;;;;;;8.52;1.70;;;12.60;80.90;;;;;;5116237;28;20049;-83
2022/11/02 09:15:29;;;;;;;13.55;3.35;;;12.70;80.80;;;;;;5099365;28;20065;-82
2022/11/02 09:17:55;;;;;;;7.43;2.33;;;12.70;80.70;;;;;;5082655;28;20036;-83
2022/11/02 09:20:21;;;;;;;11.43;2.65;;;12.70;80.80;;;;;;5098469;28;20035;-81
2022/11/02 09:22:48;;;;;;;10.95;2.13;;;12.80;80.80;;;;;;5115743;28;20044;-79
2022/11/02 09:25:14;;;;;;;13.80;2.00;;;12.80;80.60;;;;;;5098893;28;20044;-82
2022/11/02 09:27:41;;;;;;;8.57;2.05;;;12.80;80.20;;;;;;5083160;28;20507;-81
2022/11/02 09:30:08;;;;;;;8.85;1.67;;;12.90;79.60;;;;;;5116888;28;20033;-80
2022/11/02 09:32:34;;;;;;;8.38;1.70;;;12.90;78.90;;;;;;5081671;28;20048;-83
2022/11/02 09:35:05;;;;;;;7.30;1.90;;;13.00;77.90;;;;;;5099332;28;20035;-80
2022/11/02 09:37:34;;;;;;;9.77;1.90;;;13.00;77.50;;;;;;5116183;28;20062;-79
2022/11/02 09:40:06;;;;;;;13.00;1.80;;;13.00;77.50;;;;;;5099921;28;20124;-80
2022/11/02 09:43:18;;;;;;;8.43;2.83;;;13.00;78.20;;;;;;5099130;28;20067;-79
2022/11/02 09:46:00;;;;;;;13.98;2.45;;;13.00;78.70;;;;;;5034088;28;20048;-80
2022/11/02 09:48:33;;;;;;;9.25;2.28;;;13.10;78.10;;;;;;5116129;28;20077;-79
2022/11/02 09:51:05;;;;;;;6.63;1.80;;;13.20;78.50;;;;;;5098260;28;20034;-83
2022/11/02 09:54:16;;;;;;;12.15;3.50;;;13.20;78.00;;;;;;5096961;28;20281;-80
2022/11/02 09:56:43;;;;;;;13.63;4.10;;;13.20;76.40;;;;;;5104214;28;20054;-83
2022/11/02 09:59:15;;;;;;;15.32;5.75;;;13.00;76.50;;;;;;5112181;28;20138;-83
2022/11/02 10:01:54;;;;;;;13.88;4.82;;;12.90;76.50;;;;;;5080866;28;20039;-78
2022/11/02 10:04:53;;;;;;;9.38;4.03;;;12.80;77.00;;;;;;5115296;28;20075;-83
2022/11/02 10:07:51;;;;;;;10.73;2.80;;;12.70;77.10;;;;;;5115213;28;20035;-80
2022/11/02 10:10:27;;;;;;;7.88;2.67;;;12.60;77.70;;;;;;5115268;28;20563;-79
2022/11/02 10:13:09;;;;;;;11.05;2.30;;;12.70;77.40;;;;;;5098485;28;20439;-78
2022/11/02 10:15:46;;;;;;;13.60;3.10;;;12.70;76.40;;;;;;5096936;28;20042;-79
2022/11/02 10:18:23;;;;;;;14.43;5.05;;;12.70;76.60;;;;;;5086969;28;20482;-79
2022/11/02 10:21:11;;;;;;;14.43;5.78;;;12.70;76.30;;;;;;5078146;28;20523;-77
2022/11/02 10:23:44;;;;;;;41.47;11.68;;;12.80;76.20;;;;;;5094205;28;20051;-82
2022/11/02 10:26:22;;;;;;;14.93;5.45;;;12.90;76.60;;;;;;5094377;28;20075;-79
2022/11/02 10:28:53;;;;;;;12.57;4.53;;;13.10;76.80;;;;;;5093405;28;20107;-80
2022/11/02 10:31:32;;;;;;;7.32;2.13;;;13.40;77.50;;;;;;5112367;28;20548;-79
2022/11/02 10:34:26;;;;;;;5.32;1.33;;;13.60;77.10;;;;;;5115141;28;20077;-77
2022/11/02 10:37:00;;;;;;;8.52;1.52;;;13.70;74.30;;;;;;5114583;28;20059;-79
2022/11/02 10:39:36;;;;;;;8.38;2.30;;;13.60;72.40;;;;;;5097628;28;20100;-79
2022/11/02 10:42:34;;;;;;;3.22;1.17;;;13.50;70.80;;;;;;5114279;28;20071;-78
2022/11/02 10:45:05;;;;;;;5.38;1.20;;;13.60;70.70;;;;;;5114567;28;20058;-80
2022/11/02 10:47:42;;;;;;;12.50;1.98;;;13.70;70.60;;;;;;5114279;28;20035;-79
2022/11/02 10:50:35;;;;;;;8.43;1.45;;;13.60;71.50;;;;;;5114231;28;20035;-77
2022/11/02 10:53:02;;;;;;;7.00;1.48;;;13.50;71.70;;;;;;5097110;28;20047;-77
2022/11/02 10:56:02;;;;;;;8.45;1.77;;;13.50;72.80;;;;;;5097072;28;20043;-78
2022/11/02 10:58:31;;;;;;;13.52;3.63;;;13.40;72.40;;;;;;5114021;28;20091;-81
2022/11/02 11:01:05;;;;;;;7.72;1.48;;;13.30;72.60;;;;;;5114032;28;20035;-80
2022/11/02 11:03:31;;;;;;;10.50;2.00;;;13.30;73.60;;;;;;5097245;28;20040;-79
2022/11/02 11:05:59;;;;;;;8.00;1.75;;;13.20;73.20;;;;;;5113991;28;20400;-77
2022/11/02 11:08:42;;;;;;;11.50;1.88;;;13.30;72.60;;;;;;5080622;28;20044;-77
2022/11/02 11:11:16;;;;;;;9.55;1.67;;;13.50;71.90;;;;;;5091916;28;20047;-77
2022/11/02 11:13:44;;;;;;;;;;;13.60;71.00;;;;;;5093921;28;20047;-77
2022/11/02 11:16:11;;;;;;;4.63;1.10;;;13.90;70.60;;;;;;5093217;28;19915;-78
2022/11/02 11:18:38;;;;;;;4.85;1.33;;;14.00;70.50;;;;;;5091744;28;20071;-77
2022/11/02 11:21:05;;;;;;;7.40;2.22;;;14.20;70.90;;;;;;5093013;28;20044;-80
2022/11/02 11:23:31;;;;;;;7.35;1.50;;;14.30;70.00;;;;;;5076179;28;20036;-78
2022/11/02 11:26:07;;;;;;;11.20;2.10;;;14.50;70.00;;;;;;5076132;28;20036;-77
2022/11/02 11:28:41;;;;;;;10.32;1.90;;;14.50;67.60;;;;;;5093020;28;20043;-78
2022/11/02 11:31:15;;;;;;;6.53;1.63;;;14.60;67.90;;;;;;5075884;28;20503;-79
2022/11/02 11:33:55;;;;;;;5.47;1.70;;;14.60;66.70;;;;;;5075879;28;20047;-79
2022/11/02 11:36:33;;;;;;;12.07;2.53;;;14.70;66.80;;;;;;5092726;28;20040;-79
2022/11/02 11:39:02;;;;;;;9.05;3.20;;;14.70;66.20;;;;;;5075994;28;20040;-78
2022/11/02 11:41:29;;;;;;;9.73;2.00;;;14.70;65.60;;;;;;5092606;28;20071;-78
2022/11/02 11:43:55;;;;;;;3.50;1.15;;;14.70;64.10;;;;;;5092614;28;20044;-77
2022/11/02 11:46:22;;;;;;;6.15;2.05;;;14.70;65.00;;;;;;5076060;28;20390;-77
2022/11/02 11:48:58;;;;;;;10.00;2.38;;;14.80;63.90;;;;;;5092632;28;20098;-78
2022/11/02 11:51:34;;;;;;;9.65;1.92;;;14.90;65.10;;;;;;5075666;28;20039;-77
2022/11/02 11:54:27;;;;;;;10.10;2.80;;;15.00;65.20;;;;;;5092636;28;20043;-77
2022/11/02 11:56:55;;;;;;;7.40;2.03;;;15.00;65.20;;;;;;5075910;28;20044;-76
2022/11/02 11:59:43;;;;;;;5.05;1.40;;;15.00;65.90;;;;;;5075579;28;20043;-78
2022/11/02 12:02:25;;;;;;;4.05;1.63;;;15.00;65.30;;;;;;5092268;28;20089;-79
2022/11/02 12:04:57;;;;;;;8.85;1.67;;;15.00;65.00;;;;;;5092398;28;20040;-76
2022/11/02 12:07:56;;;;;;;5.95;1.27;;;15.10;65.30;;;;;;5092381;28;20036;-80
2022/11/02 12:10:44;;;;;;;7.25;2.10;;;15.20;65.40;;;;;;5092421;28;20044;-78
2022/11/02 12:13:19;;;;;;;3.83;1.40;;;15.30;65.60;;;;;;5092201;28;20044;-79
2022/11/02 12:15:54;;;;;;;8.60;2.05;;;15.30;63.80;;;;;;5092065;28;20047;-79
2022/11/02 12:18:32;;;;;;;6.53;1.85;;;15.40;65.80;;;;;;5092468;28;20392;-80
2022/11/02 12:21:23;;;;;;;11.05;3.05;;;15.40;64.60;;;;;;5092182;28;20126;-77
2022/11/02 12:24:03;;;;;;;11.15;2.20;;;15.50;64.70;;;;;;5091995;28;20036;-77
2022/11/02 12:26:37;;;;;;;18.55;2.85;;;15.50;65.30;;;;;;5092045;28;20068;-79
2022/11/02 12:29:21;;;;;;;14.02;1.83;;;15.50;66.20;;;;;;5075185;28;20040;-79
2022/11/02 12:32:26;;;;;;;11.05;1.90;;;15.50;65.60;;;;;;5092130;28;20397;-77
2022/11/02 12:35:04;;;;;;;10.35;2.20;;;15.50;65.90;;;;;;5092454;28;20043;-79
2022/11/02 12:37:51;;;;;;;9.98;1.77;;;15.50;66.60;;;;;;5091735;28;20059;-77
2022/11/02 12:40:17;;;;;;;5.22;1.75;;;15.60;66.50;;;;;;5091648;28;20497;-81
2022/11/02 12:43:18;;;;;;;10.82;2.30;;;15.60;66.60;;;;;;5091132;28;20100;-78
2022/11/02 12:46:19;;;;;;;8.77;2.22;;;15.70;65.40;;;;;;5104973;28;20059;-77
2022/11/02 12:49:17;;;;;;;6.95;1.65;;;15.90;65.50;;;;;;5037609;28;20040;-81
2022/11/02 12:52:08;;;;;;;13.63;3.05;;;16.00;64.20;;;;;;5091815;28;20435;-79
2022/11/02 12:54:44;;;;;;;9.38;1.98;;;16.10;65.10;;;;;;5074964;28;20048;-79
2022/11/02 12:57:14;;;;;;;10.55;2.35;;;16.00;65.20;;;;;;5100719;28;20123;-81
2022/11/02 12:59:42;;;;;;;7.00;1.67;;;16.00;64.20;;;;;;5112110;28;20122;-78
2022/11/02 13:02:19;;;;;;;9.45;1.98;;;15.90;64.40;;;;;;5112077;28;20481;-78
2022/11/02 13:05:16;;;;;;;8.90;1.90;;;16.00;65.10;;;;;;5112024;28;20492;-78
2022/11/02 13:08:03;;;;;;;8.25;2.25;;;16.10;64.80;;;;;;5111826;28;20036;-79
2022/11/02 13:10:34;;;;;;;11.00;2.45;;;16.10;64.50;;;;;;5111981;28;20116;-81
2022/11/02 13:13:03;;;;;;;8.90;2.47;;;16.10;64.30;;;;;;5095123;28;20040;-76
2022/11/02 13:15:33;;;;;;;10.02;1.92;;;16.00;64.50;;;;;;5112055;28;20122;-81
2022/11/02 13:18:08;;;;;;;5.82;1.48;;;16.10;64.90;;;;;;5112364;28;20105;-78
2022/11/02 13:20:54;;;;;;;8.52;1.85;;;16.00;64.80;;;;;;5095407;28;20036;-76
2022/11/02 13:23:32;;;;;;;7.10;1.83;;;15.80;64.40;;;;;;5112327;28;20445;-80
2022/11/02 13:26:25;;;;;;;10.63;2.08;;;15.90;64.80;;;;;;5112424;28;20047;-77